createdAt,value
2023-05-06T04:23:02.845Z,4.43
2023-05-06T04:25:30.475Z,4.35
2023-05-06T04:27:57.898Z,3.92
2023-05-06T04:30:25.433Z,3.55
2023-05-06T04:32:53.229Z,3.92
2023-05-06T04:35:21.048Z,3.75
2023-05-06T04:40:26.526Z,3.70
2023-05-06T04:42:54.572Z,3.83
2023-05-06T04:45:26.503Z,4.22
2023-05-06T04:47:55.385Z,3.63
2023-05-06T04:50:22.901Z,4.15
2023-05-06T04:52:50.280Z,6.13
2023-05-06T04:55:19.537Z,4.10
2023-05-06T04:57:52.185Z,4.30
2023-05-06T05:00:19.832Z,5.43
2023-05-06T05:05:35.151Z,4.57
2023-05-06T05:08:05.197Z,4.70
2023-05-06T05:10:35.955Z,5.05
2023-05-06T05:13:03.479Z,4.50
2023-05-06T05:15:31.377Z,4.20
2023-05-06T05:17:59.062Z,4.78
2023-05-06T05:20:27.046Z,4.60
2023-05-06T05:22:54.450Z,4.72
2023-05-06T05:25:40.605Z,4.43
2023-05-06T05:30:37.407Z,3.75
2023-05-06T05:33:05.630Z,4.65
2023-05-06T05:38:02.092Z,4.60
2023-05-06T05:40:29.529Z,3.67
2023-05-06T05:42:56.961Z,4.63
2023-05-06T05:45:31.188Z,3.90
2023-05-06T05:47:59.362Z,3.90
2023-05-06T05:52:55.856Z,5.20
2023-05-06T05:55:23.337Z,5.82
2023-05-06T05:57:51.828Z,4.80
2023-05-06T06:00:21.582Z,5.43
2023-05-06T06:02:55.619Z,3.83
2023-05-06T06:05:23.099Z,3.25
2023-05-06T06:07:51.798Z,3.40
2023-05-06T06:10:19.305Z,3.17
2023-05-06T06:13:06.396Z,3.20
2023-05-06T06:15:34.188Z,3.05
2023-05-06T06:18:02.415Z,2.60
2023-05-06T06:20:30.756Z,3.65
2023-05-06T06:22:59.067Z,2.97
2023-05-06T06:27:55.887Z,2.40
2023-05-06T06:30:29.752Z,2.20
2023-05-06T06:35:27.153Z,2.42
2023-05-06T06:37:55.246Z,2.60
2023-05-06T06:40:23.053Z,2.80
2023-05-06T06:42:51.580Z,3.47
2023-05-06T06:45:32.148Z,3.13
2023-05-06T06:47:59.535Z,2.60
2023-05-06T06:50:27.236Z,2.70
2023-05-06T06:52:54.522Z,2.42
2023-05-06T06:55:22.005Z,2.70
2023-05-06T06:57:49.496Z,2.08
2023-05-06T07:00:17.093Z,2.30
2023-05-06T07:05:12.233Z,2.17
2023-05-06T07:07:39.909Z,2.40
2023-05-06T07:10:07.878Z,2.33
2023-05-06T07:12:35.493Z,1.85
2023-05-06T07:15:07.139Z,2.75
2023-05-06T07:17:34.668Z,2.30
2023-05-06T07:20:02.074Z,2.60
2023-05-06T07:22:31.670Z,2.13
2023-05-06T07:24:59.467Z,2.15
2023-05-06T07:27:27.697Z,2.08
2023-05-06T07:29:55.119Z,2.25
2023-05-06T07:32:22.763Z,2.45
2023-05-06T07:34:50.208Z,2.17
2023-05-06T07:37:17.518Z,2.20
2023-05-06T07:42:13.447Z,1.98
2023-05-06T07:44:40.967Z,2.42
2023-05-06T07:49:35.900Z,2.10
2023-05-06T07:54:32.005Z,2.13
2023-05-06T07:57:18.152Z,2.13
2023-05-06T07:59:50.278Z,2.00
2023-05-06T08:02:17.908Z,1.80
2023-05-06T08:04:47.278Z,1.88
2023-05-06T08:07:16.340Z,2.40
2023-05-06T08:09:43.684Z,2.05
2023-05-06T08:12:11.240Z,1.95
2023-05-06T08:14:57.199Z,2.20
2023-05-06T08:19:51.737Z,2.47
2023-05-06T08:22:19.225Z,2.38
2023-05-06T08:24:46.556Z,2.25
2023-05-06T08:27:13.918Z,2.00
2023-05-06T08:29:41.261Z,2.35
2023-05-06T08:32:08.672Z,2.05
2023-05-06T08:34:36.283Z,2.70
2023-05-06T08:39:31.632Z,2.38
2023-05-06T08:42:02.277Z,2.70
2023-05-06T08:44:29.929Z,2.28
2023-05-06T08:47:16.002Z,2.25
2023-05-06T08:49:43.682Z,3.28
2023-05-06T08:52:12.125Z,2.33
2023-05-06T08:54:40.867Z,2.47
2023-05-06T08:57:12.584Z,2.25
2023-05-06T08:59:40.463Z,2.20
2023-05-06T09:02:08.786Z,2.67
2023-05-06T09:04:37.541Z,2.17
2023-05-06T09:07:04.827Z,2.00
2023-05-06T09:09:32.290Z,3.08
2023-05-06T09:12:02.094Z,2.22
2023-05-06T09:14:29.633Z,2.20
2023-05-06T09:19:41.566Z,2.85
2023-05-06T09:24:37.639Z,2.58
2023-05-06T09:27:05.137Z,2.50
2023-05-06T09:32:06.081Z,2.33
2023-05-06T09:34:33.773Z,2.22
2023-05-06T09:37:01.514Z,2.40
2023-05-06T09:39:28.912Z,3.22
2023-05-06T09:41:56.817Z,2.25
2023-05-06T09:44:24.818Z,2.50
2023-05-06T09:46:52.492Z,2.38
2023-05-06T09:49:19.885Z,2.25
2023-05-06T09:54:19.650Z,2.22
2023-05-06T09:56:48.246Z,2.75
2023-05-06T09:59:18.700Z,2.67
2023-05-06T10:01:46.232Z,2.65
2023-05-06T10:04:16.049Z,2.80
2023-05-06T10:06:44.444Z,2.65
2023-05-06T10:09:12.642Z,2.55
2023-05-06T10:11:40.738Z,2.28
2023-05-06T10:14:09.456Z,2.85
2023-05-06T10:16:37.904Z,3.25
2023-05-06T10:19:07.688Z,3.17
2023-05-06T10:22:07.353Z,2.97
2023-05-06T10:25:03.308Z,2.63
2023-05-06T10:27:33.270Z,2.47
2023-05-06T10:30:01.209Z,3.35
2023-05-06T10:32:33.461Z,3.10
2023-05-06T10:35:18.119Z,2.78
2023-05-06T10:37:49.925Z,3.55
2023-05-06T10:40:17.583Z,3.15
2023-05-06T10:42:45.081Z,3.33
2023-05-06T10:47:56.824Z,2.63
2023-05-06T10:50:26.727Z,3.00
2023-05-06T10:53:01.907Z,2.88
2023-05-06T10:55:36.212Z,2.83
2023-05-06T10:58:12.599Z,2.90
2023-05-06T11:03:24.563Z,2.75
2023-05-06T11:05:52.793Z,2.97
2023-05-06T11:08:25.562Z,2.88
2023-05-06T11:10:56.019Z,2.08
2023-05-06T11:13:24.903Z,1.90
2023-05-06T11:15:52.887Z,1.80
2023-05-06T11:18:33.860Z,1.67
2023-05-06T11:21:03.799Z,2.20
2023-05-06T11:23:47.244Z,2.58
2023-05-06T11:26:34.426Z,1.70
2023-05-06T11:29:04.319Z,1.80
2023-05-06T11:31:39.117Z,1.77
2023-05-06T11:34:12.178Z,2.47
2023-05-06T11:36:53.710Z,2.67
2023-05-06T11:39:21.503Z,2.58
2023-05-06T11:41:48.976Z,2.40
2023-05-06T11:44:31.239Z,3.22
2023-05-06T11:49:53.565Z,3.70
2023-05-06T11:52:21.293Z,4.72
2023-05-06T11:54:51.000Z,4.65
2023-05-06T11:57:20.444Z,3.78
2023-05-06T11:59:53.530Z,4.43
2023-05-06T12:02:21.854Z,2.90
2023-05-06T12:04:53.539Z,2.67
2023-05-06T12:07:21.055Z,3.25
2023-05-06T12:09:50.240Z,2.97
2023-05-06T12:12:24.091Z,2.33
2023-05-06T12:17:20.417Z,2.28
2023-05-06T12:19:47.906Z,2.25
2023-05-06T12:22:24.882Z,3.35
2023-05-06T12:24:52.819Z,5.22
2023-05-06T12:27:33.959Z,5.10
2023-05-06T12:30:01.848Z,4.32
2023-05-06T12:32:33.041Z,4.07
2023-05-06T12:35:19.709Z,3.58
2023-05-06T12:37:47.373Z,2.20
2023-05-06T12:40:18.420Z,2.42
2023-05-06T12:42:45.850Z,2.22
2023-05-06T12:45:15.053Z,2.45
2023-05-06T12:47:53.943Z,1.90
2023-05-06T12:50:36.705Z,2.13
2023-05-06T12:53:05.448Z,2.72
2023-05-06T12:55:40.377Z,1.60
2023-05-06T12:58:19.253Z,2.30
2023-05-06T13:00:46.854Z,2.08
2023-05-06T13:03:14.395Z,3.50
2023-05-06T13:05:42.285Z,3.13
2023-05-06T13:08:09.600Z,3.10
2023-05-06T13:10:37.013Z,3.03
2023-05-06T13:13:04.404Z,2.95
2023-05-06T13:15:32.110Z,2.20
2023-05-06T13:17:59.446Z,2.80
2023-05-06T13:20:27.627Z,1.80
2023-05-06T13:22:55.378Z,1.77
2023-05-06T13:25:23.562Z,1.80
2023-05-06T13:27:50.997Z,1.90
2023-05-06T13:30:18.335Z,2.72
2023-05-06T13:32:46.989Z,2.40
2023-05-06T13:35:14.420Z,2.30
2023-05-06T13:37:41.813Z,2.50
2023-05-06T13:40:10.210Z,2.47
2023-05-06T13:42:37.585Z,2.90
2023-05-06T13:45:05.417Z,2.80
2023-05-06T13:47:33.108Z,3.55
2023-05-06T13:52:46.395Z,2.65
2023-05-06T13:55:13.855Z,2.40
2023-05-06T13:57:41.152Z,2.47
2023-05-06T14:00:11.120Z,3.03
2023-05-06T14:02:38.600Z,2.63
2023-05-06T14:05:06.548Z,2.30
2023-05-06T14:07:33.904Z,3.55
2023-05-06T14:10:01.284Z,2.63
2023-05-06T14:12:31.541Z,2.50
2023-05-06T14:20:10.971Z,2.88
2023-05-06T14:22:41.690Z,2.55
2023-05-06T14:25:09.797Z,2.85
2023-05-06T14:27:37.349Z,3.08
2023-05-06T14:30:08.510Z,3.03
2023-05-06T14:32:37.358Z,4.38
2023-05-06T14:35:05.605Z,3.80
2023-05-06T14:37:33.253Z,4.30
2023-05-06T14:40:00.646Z,4.25
2023-05-06T14:42:28.083Z,4.90
2023-05-06T14:44:55.388Z,4.57
2023-05-06T14:47:23.854Z,4.80
2023-05-06T14:49:51.198Z,4.78
2023-05-06T14:52:18.645Z,4.20
2023-05-06T14:54:45.992Z,4.63
2023-05-06T14:57:13.399Z,4.55
2023-05-06T14:59:40.709Z,4.20
2023-05-06T15:02:09.942Z,3.72
2023-05-06T15:04:56.069Z,3.95
2023-05-06T15:07:23.437Z,3.95
2023-05-06T15:09:50.799Z,4.28
2023-05-06T15:12:18.301Z,3.97
2023-05-06T15:17:13.715Z,3.17
2023-05-06T15:19:41.176Z,3.25
2023-05-06T15:22:08.422Z,3.03
2023-05-06T15:24:36.209Z,3.13
2023-05-06T15:27:03.644Z,2.83
2023-05-06T15:29:31.358Z,3.10
2023-05-06T15:31:58.840Z,3.10
2023-05-06T15:37:12.350Z,2.70
2023-05-06T15:39:39.784Z,3.63
2023-05-06T15:42:07.168Z,3.28
2023-05-06T15:44:34.563Z,3.00
2023-05-06T15:47:01.816Z,3.25
2023-05-06T15:52:01.094Z,3.08
2023-05-06T15:54:29.153Z,3.60
2023-05-06T15:56:57.090Z,3.50
2023-05-06T15:59:24.356Z,2.63
2023-05-06T16:02:25.335Z,4.82
2023-05-06T16:04:39.434Z,5.57
2023-05-06T16:07:07.867Z,5.47
2023-05-06T16:09:35.299Z,4.45
2023-05-06T16:12:02.782Z,4.35
2023-05-06T16:14:30.017Z,4.35
2023-05-06T16:16:58.761Z,3.08
2023-05-06T16:19:26.439Z,3.10
2023-05-06T16:24:21.985Z,3.55
2023-05-06T16:26:49.384Z,3.00
2023-05-06T16:29:19.324Z,3.60
2023-05-06T16:31:50.102Z,3.78
2023-05-06T16:34:17.554Z,3.00
2023-05-06T16:36:44.948Z,3.08
2023-05-06T16:39:12.313Z,2.63
2023-05-06T16:41:58.408Z,2.78
2023-05-06T16:44:25.778Z,2.95
2023-05-06T16:46:53.179Z,3.13
2023-05-06T16:49:21.371Z,3.28
2023-05-06T16:51:48.666Z,3.85
2023-05-06T16:54:16.048Z,4.30
2023-05-06T16:56:51.309Z,4.30
2023-05-06T16:59:22.213Z,5.38
2023-05-06T17:01:50.631Z,5.45
2023-05-06T17:04:18.050Z,5.00
2023-05-06T17:06:45.456Z,4.93
2023-05-06T17:09:12.896Z,4.53
2023-05-06T17:11:40.210Z,4.53
2023-05-06T17:14:07.788Z,4.53
2023-05-06T17:16:35.325Z,4.00
2023-05-06T17:19:02.713Z,3.90
2023-05-06T17:21:30.183Z,4.50
2023-05-06T17:23:58.970Z,3.50
2023-05-06T17:26:26.604Z,3.75
2023-05-06T17:28:54.239Z,4.63
2023-05-06T17:31:21.885Z,6.55
2023-05-06T17:38:46.710Z,2.55
2023-05-06T17:43:41.744Z,3.03
2023-05-06T17:48:37.227Z,2.92
2023-05-06T17:51:04.656Z,2.70
2023-05-06T17:53:34.308Z,3.60
2023-05-06T17:56:01.720Z,3.88
2023-05-06T17:58:29.231Z,4.60
2023-05-06T18:00:57.665Z,5.03
2023-05-06T18:03:25.300Z,4.50
2023-05-06T18:05:52.784Z,4.65
2023-05-06T18:08:20.069Z,5.68
2023-05-06T18:10:47.460Z,6.03
2023-05-06T18:13:14.904Z,4.80
2023-05-06T18:15:43.186Z,3.97
2023-05-06T18:18:10.977Z,2.95
2023-05-06T18:20:38.508Z,2.58
2023-05-06T18:23:08.489Z,2.72
2023-05-06T18:25:36.134Z,2.72
2023-05-06T18:28:05.270Z,3.22
2023-05-06T18:30:32.718Z,3.45
2023-05-06T18:33:00.122Z,2.92
2023-05-06T18:35:27.523Z,4.65
2023-05-06T18:37:54.897Z,4.18
2023-05-06T18:40:22.414Z,4.55
2023-05-06T18:42:49.879Z,3.70
2023-05-06T18:45:17.342Z,2.80
2023-05-06T18:47:44.746Z,3.08
2023-05-06T18:50:12.262Z,2.60
2023-05-06T18:52:39.630Z,1.83
2023-05-06T18:55:07.790Z,1.80
2023-05-06T18:57:35.350Z,1.98
2023-05-06T19:00:02.724Z,1.70
2023-05-06T19:02:33.167Z,2.20
2023-05-06T19:05:00.922Z,2.20
2023-05-06T19:07:28.330Z,1.85
2023-05-06T19:09:55.658Z,1.75
2023-05-06T19:12:23.618Z,1.33
2023-05-06T19:22:15.772Z,1.40
2023-05-06T19:24:43.178Z,1.20
2023-05-06T19:27:11.087Z,1.23
2023-05-06T19:29:38.399Z,1.20
2023-05-06T19:32:06.157Z,0.90
2023-05-06T19:34:52.151Z,1.10
2023-05-06T19:37:19.585Z,1.05
2023-05-06T19:39:47.905Z,0.93
2023-05-06T19:42:16.162Z,0.70
2023-05-06T19:44:43.527Z,1.00
2023-05-06T19:47:10.988Z,0.80
2023-05-06T19:49:38.365Z,1.00
2023-05-06T19:52:05.771Z,1.15
2023-05-06T19:54:33.120Z,0.80
2023-05-06T19:57:00.979Z,0.95
2023-05-06T20:01:57.356Z,0.90
2023-05-06T20:04:43.772Z,1.02
2023-05-06T20:09:41.477Z,1.02
2023-05-06T20:12:08.903Z,0.90
2023-05-06T20:14:36.316Z,1.23
2023-05-06T20:17:03.761Z,0.95
2023-05-06T20:19:31.589Z,1.17
2023-05-06T20:21:59.754Z,1.58
2023-05-06T20:24:29.741Z,1.17
2023-05-06T20:26:59.223Z,1.00
2023-05-06T20:29:26.655Z,1.10
2023-05-06T20:31:54.246Z,1.25
2023-05-06T20:34:21.670Z,1.27
2023-05-06T20:36:50.194Z,1.05
2023-05-06T20:39:17.612Z,1.27
2023-05-06T20:41:45.088Z,1.52
2023-05-06T20:44:12.484Z,1.27
2023-05-06T20:46:39.908Z,1.52
2023-05-06T20:49:07.945Z,1.20
2023-05-06T20:51:35.371Z,1.27
2023-05-06T20:54:02.656Z,1.63
2023-05-06T20:56:29.908Z,2.10
2023-05-06T20:58:57.322Z,1.80
2023-05-06T21:01:25.845Z,3.38
